sensor_id;sensor_type;location;lat;lon;timestamp;P1;durP1;ratioP1;P2;durP2;ratioP2
35128;SDS011;21301;43.626;10.580;2023-03-13T00:00:51;14.73;;;5.70;;
35128;SDS011;21301;43.626;10.580;2023-03-13T00:03:18;16.40;;;6.78;;
35128;SDS011;21301;43.626;10.580;2023-03-13T00:05:44;13.27;;;5.18;;
35128;SDS011;21301;43.626;10.580;2023-03-13T00:08:10;16.20;;;6.45;;
35128;SDS011;21301;43.626;10.580;2023-03-13T00:10:36;13.23;;;6.82;;
35128;SDS011;21301;43.626;10.580;2023-03-13T00:13:04;15.32;;;7.45;;
35128;SDS011;21301;43.626;10.580;2023-03-13T00:15:30;14.95;;;6.07;;
35128;SDS011;21301;43.626;10.580;2023-03-13T00:17:56;16.67;;;6.85;;
35128;SDS011;21301;43.626;10.580;2023-03-13T00:20:21;17.15;;;6.80;;
35128;SDS011;21301;43.626;10.580;2023-03-13T00:22:47;16.98;;;7.50;;
35128;SDS011;21301;43.626;10.580;2023-03-13T00:25:13;13.80;;;5.60;;
35128;SDS011;21301;43.626;10.580;2023-03-13T00:27:38;18.05;;;6.82;;
35128;SDS011;21301;43.626;10.580;2023-03-13T00:30:04;23.65;;;7.32;;
35128;SDS011;21301;43.626;10.580;2023-03-13T00:32:31;14.52;;;5.70;;
35128;SDS011;21301;43.626;10.580;2023-03-13T00:35:04;20.75;;;6.30;;
35128;SDS011;21301;43.626;10.580;2023-03-13T00:37:30;17.00;;;5.00;;
35128;SDS011;21301;43.626;10.580;2023-03-13T00:39:56;15.63;;;5.88;;
35128;SDS011;21301;43.626;10.580;2023-03-13T00:42:22;12.68;;;6.40;;
35128;SDS011;21301;43.626;10.580;2023-03-13T00:44:48;16.48;;;6.57;;
35128;SDS011;21301;43.626;10.580;2023-03-13T00:47:13;11.93;;;5.70;;
35128;SDS011;21301;43.626;10.580;2023-03-13T00:49:41;16.17;;;6.70;;
35128;SDS011;21301;43.626;10.580;2023-03-13T00:52:07;23.08;;;7.15;;
35128;SDS011;21301;43.626;10.580;2023-03-13T00:54:33;13.23;;;6.03;;
35128;SDS011;21301;43.626;10.580;2023-03-13T00:56:59;16.10;;;6.25;;
35128;SDS011;21301;43.626;10.580;2023-03-13T00:59:25;18.85;;;7.70;;
35128;SDS011;21301;43.626;10.580;2023-03-13T01:01:50;18.38;;;6.57;;
35128;SDS011;21301;43.626;10.580;2023-03-13T01:04:17;18.77;;;6.68;;
35128;SDS011;21301;43.626;10.580;2023-03-13T01:06:43;16.85;;;5.95;;
35128;SDS011;21301;43.626;10.580;2023-03-13T01:09:12;15.90;;;6.35;;
35128;SDS011;21301;43.626;10.580;2023-03-13T01:11:40;16.25;;;6.10;;
35128;SDS011;21301;43.626;10.580;2023-03-13T01:14:08;13.85;;;6.03;;
35128;SDS011;21301;43.626;10.580;2023-03-13T01:16:37;16.40;;;5.65;;
35128;SDS011;21301;43.626;10.580;2023-03-13T01:19:07;11.43;;;4.80;;
35128;SDS011;21301;43.626;10.580;2023-03-13T01:21:35;12.25;;;4.63;;
35128;SDS011;21301;43.626;10.580;2023-03-13T01:24:01;13.48;;;4.38;;
35128;SDS011;21301;43.626;10.580;2023-03-13T01:26:27;13.95;;;5.57;;
35128;SDS011;21301;43.626;10.580;2023-03-13T01:28:53;12.63;;;5.75;;
35128;SDS011;21301;43.626;10.580;2023-03-13T01:31:21;10.57;;;4.30;;
35128;SDS011;21301;43.626;10.580;2023-03-13T01:33:49;17.77;;;5.47;;
35128;SDS011;21301;43.626;10.580;2023-03-13T01:36:18;10.75;;;4.75;;
35128;SDS011;21301;43.626;10.580;2023-03-13T01:38:46;17.02;;;4.95;;
35128;SDS011;21301;43.626;10.580;2023-03-13T01:41:16;11.35;;;4.25;;
35128;SDS011;21301;43.626;10.580;2023-03-13T01:43:44;14.35;;;5.35;;
35128;SDS011;21301;43.626;10.580;2023-03-13T01:46:30;8.02;;;3.90;;
35128;SDS011;21301;43.626;10.580;2023-03-13T01:49:10;16.90;;;4.63;;
35128;SDS011;21301;43.626;10.580;2023-03-13T01:55:11;8.57;;;3.38;;
35128;SDS011;21301;43.626;10.580;2023-03-13T01:57:43;8.77;;;4.13;;
35128;SDS011;21301;43.626;10.580;2023-03-13T02:00:36;12.52;;;3.40;;
35128;SDS011;21301;43.626;10.580;2023-03-13T02:03:11;12.48;;;3.33;;
35128;SDS011;21301;43.626;10.580;2023-03-13T02:05:40;10.80;;;3.67;;
35128;SDS011;21301;43.626;10.580;2023-03-13T02:10:53;14.48;;;4.60;;
35128;SDS011;21301;43.626;10.580;2023-03-13T02:13:40;10.88;;;4.97;;
35128;SDS011;21301;43.626;10.580;2023-03-13T02:16:06;11.43;;;4.72;;
35128;SDS011;21301;43.626;10.580;2023-03-13T02:18:34;14.98;;;5.68;;
35128;SDS011;21301;43.626;10.580;2023-03-13T02:21:14;16.95;;;4.93;;
35128;SDS011;21301;43.626;10.580;2023-03-13T02:24:02;15.10;;;4.38;;
35128;SDS011;21301;43.626;10.580;2023-03-13T02:26:33;11.07;;;4.72;;
35128;SDS011;21301;43.626;10.580;2023-03-13T02:28:59;11.18;;;4.07;;
35128;SDS011;21301;43.626;10.580;2023-03-13T02:31:25;12.73;;;4.35;;
35128;SDS011;21301;43.626;10.580;2023-03-13T02:33:51;20.75;;;4.00;;
35128;SDS011;21301;43.626;10.580;2023-03-13T02:36:19;12.90;;;4.50;;
35128;SDS011;21301;43.626;10.580;2023-03-13T02:38:53;11.27;;;4.20;;
35128;SDS011;21301;43.626;10.580;2023-03-13T02:41:22;17.80;;;4.72;;
35128;SDS011;21301;43.626;10.580;2023-03-13T02:43:49;31.67;;;5.85;;
35128;SDS011;21301;43.626;10.580;2023-03-13T02:46:17;14.60;;;5.25;;
35128;SDS011;21301;43.626;10.580;2023-03-13T02:48:51;17.15;;;4.63;;
35128;SDS011;21301;43.626;10.580;2023-03-13T02:51:21;11.52;;;4.65;;
35128;SDS011;21301;43.626;10.580;2023-03-13T02:54:13;9.02;;;4.00;;
35128;SDS011;21301;43.626;10.580;2023-03-13T02:56:48;11.02;;;4.05;;
35128;SDS011;21301;43.626;10.580;2023-03-13T02:59:18;9.20;;;4.28;;
35128;SDS011;21301;43.626;10.580;2023-03-13T03:01:45;14.98;;;4.40;;
35128;SDS011;21301;43.626;10.580;2023-03-13T03:04:11;13.38;;;4.45;;
35128;SDS011;21301;43.626;10.580;2023-03-13T03:06:37;18.08;;;5.25;;
35128;SDS011;21301;43.626;10.580;2023-03-13T03:09:04;9.32;;;3.45;;
35128;SDS011;21301;43.626;10.580;2023-03-13T03:11:33;9.48;;;3.15;;
35128;SDS011;21301;43.626;10.580;2023-03-13T03:14:04;10.75;;;3.97;;
35128;SDS011;21301;43.626;10.580;2023-03-13T03:16:35;12.48;;;5.00;;
35128;SDS011;21301;43.626;10.580;2023-03-13T03:19:04;16.27;;;4.40;;
35128;SDS011;21301;43.626;10.580;2023-03-13T03:21:31;12.45;;;4.05;;
35128;SDS011;21301;43.626;10.580;2023-03-13T03:23:58;9.15;;;3.47;;
35128;SDS011;21301;43.626;10.580;2023-03-13T03:26:24;11.45;;;4.05;;
35128;SDS011;21301;43.626;10.580;2023-03-13T03:28:51;9.75;;;3.75;;
35128;SDS011;21301;43.626;10.580;2023-03-13T03:31:17;8.60;;;3.95;;
35128;SDS011;21301;43.626;10.580;2023-03-13T03:33:43;10.15;;;3.40;;
35128;SDS011;21301;43.626;10.580;2023-03-13T03:36:12;9.82;;;3.40;;
35128;SDS011;21301;43.626;10.580;2023-03-13T03:38:40;13.15;;;4.00;;
35128;SDS011;21301;43.626;10.580;2023-03-13T03:41:08;7.00;;;3.38;;
35128;SDS011;21301;43.626;10.580;2023-03-13T03:43:35;11.35;;;4.00;;
35128;SDS011;21301;43.626;10.580;2023-03-13T03:46:03;11.35;;;3.58;;
35128;SDS011;21301;43.626;10.580;2023-03-13T03:48:29;7.53;;;3.03;;
35128;SDS011;21301;43.626;10.580;2023-03-13T03:50:55;10.45;;;3.17;;
35128;SDS011;21301;43.626;10.580;2023-03-13T03:53:22;7.68;;;3.42;;
35128;SDS011;21301;43.626;10.580;2023-03-13T03:55:48;18.90;;;3.15;;
35128;SDS011;21301;43.626;10.580;2023-03-13T03:58:15;8.10;;;3.08;;
35128;SDS011;21301;43.626;10.580;2023-03-13T04:04:56;10.02;;;2.55;;
35128;SDS011;21301;43.626;10.580;2023-03-13T04:07:29;7.45;;;2.92;;
35128;SDS011;21301;43.626;10.580;2023-03-13T04:09:55;8.63;;;2.95;;
35128;SDS011;21301;43.626;10.580;2023-03-13T04:12:32;10.57;;;3.15;;
35128;SDS011;21301;43.626;10.580;2023-03-13T04:14:58;9.93;;;4.75;;
35128;SDS011;21301;43.626;10.580;2023-03-13T04:17:23;9.20;;;3.38;;
35128;SDS011;21301;43.626;10.580;2023-03-13T04:19:50;7.90;;;3.30;;
35128;SDS011;21301;43.626;10.580;2023-03-13T04:22:16;12.50;;;4.75;;
35128;SDS011;21301;43.626;10.580;2023-03-13T04:24:47;9.05;;;3.13;;
35128;SDS011;21301;43.626;10.580;2023-03-13T04:27:13;7.70;;;2.88;;
35128;SDS011;21301;43.626;10.580;2023-03-13T04:29:41;12.13;;;4.00;;
35128;SDS011;21301;43.626;10.580;2023-03-13T04:32:36;7.45;;;2.20;;
35128;SDS011;21301;43.626;10.580;2023-03-13T04:35:24;6.60;;;2.67;;
35128;SDS011;21301;43.626;10.580;2023-03-13T04:38:25;9.02;;;2.88;;
35128;SDS011;21301;43.626;10.580;2023-03-13T04:41:20;9.43;;;3.20;;
35128;SDS011;21301;43.626;10.580;2023-03-13T04:44:01;16.42;;;3.22;;
35128;SDS011;21301;43.626;10.580;2023-03-13T04:46:41;15.73;;;5.00;;
35128;SDS011;21301;43.626;10.580;2023-03-13T04:49:26;10.90;;;3.38;;
35128;SDS011;21301;43.626;10.580;2023-03-13T04:52:18;10.82;;;3.15;;
35128;SDS011;21301;43.626;10.580;2023-03-13T04:54:58;8.07;;;3.78;;
35128;SDS011;21301;43.626;10.580;2023-03-13T04:58:02;18.90;;;4.90;;
35128;SDS011;21301;43.626;10.580;2023-03-13T05:00:42;10.85;;;3.65;;
35128;SDS011;21301;43.626;10.580;2023-03-13T05:03:11;12.90;;;3.53;;
35128;SDS011;21301;43.626;10.580;2023-03-13T05:05:55;10.60;;;4.40;;
35128;SDS011;21301;43.626;10.580;2023-03-13T05:08:38;12.82;;;3.78;;
35128;SDS011;21301;43.626;10.580;2023-03-13T05:14:17;9.95;;;4.07;;
35128;SDS011;21301;43.626;10.580;2023-03-13T05:16:53;13.25;;;4.25;;
35128;SDS011;21301;43.626;10.580;2023-03-13T05:19:38;12.75;;;3.90;;
35128;SDS011;21301;43.626;10.580;2023-03-13T05:22:15;12.20;;;4.53;;
35128;SDS011;21301;43.626;10.580;2023-03-13T05:25:14;20.63;;;4.40;;
35128;SDS011;21301;43.626;10.580;2023-03-13T05:28:00;12.15;;;4.57;;
35128;SDS011;21301;43.626;10.580;2023-03-13T05:30:49;11.85;;;4.78;;
35128;SDS011;21301;43.626;10.580;2023-03-13T05:33:50;11.60;;;4.53;;
35128;SDS011;21301;43.626;10.580;2023-03-13T05:36:26;15.20;;;4.45;;
35128;SDS011;21301;43.626;10.580;2023-03-13T05:39:21;12.68;;;4.40;;
35128;SDS011;21301;43.626;10.580;2023-03-13T05:41:56;12.98;;;4.15;;
35128;SDS011;21301;43.626;10.580;2023-03-13T05:44:42;15.88;;;4.82;;
35128;SDS011;21301;43.626;10.580;2023-03-13T05:47:19;11.65;;;4.35;;
35128;SDS011;21301;43.626;10.580;2023-03-13T05:50:08;13.80;;;4.68;;
35128;SDS011;21301;43.626;10.580;2023-03-13T05:52:52;12.18;;;5.20;;
35128;SDS011;21301;43.626;10.580;2023-03-13T05:55:46;11.98;;;5.03;;
35128;SDS011;21301;43.626;10.580;2023-03-13T05:58:35;14.25;;;5.60;;
35128;SDS011;21301;43.626;10.580;2023-03-13T06:01:10;16.83;;;5.72;;
35128;SDS011;21301;43.626;10.580;2023-03-13T06:04:00;15.75;;;6.82;;
35128;SDS011;21301;43.626;10.580;2023-03-13T06:06:26;10.10;;;5.72;;
35128;SDS011;21301;43.626;10.580;2023-03-13T06:08:54;15.82;;;5.57;;
35128;SDS011;21301;43.626;10.580;2023-03-13T06:11:23;10.68;;;4.97;;
35128;SDS011;21301;43.626;10.580;2023-03-13T06:13:50;10.07;;;5.13;;
35128;SDS011;21301;43.626;10.580;2023-03-13T06:16:26;11.85;;;6.07;;
35128;SDS011;21301;43.626;10.580;2023-03-13T06:18:56;9.88;;;3.60;;
35128;SDS011;21301;43.626;10.580;2023-03-13T06:21:22;9.38;;;4.25;;
35128;SDS011;21301;43.626;10.580;2023-03-13T06:23:48;12.55;;;3.90;;
35128;SDS011;21301;43.626;10.580;2023-03-13T06:26:14;8.10;;;3.83;;
35128;SDS011;21301;43.626;10.580;2023-03-13T06:28:40;10.57;;;3.08;;
35128;SDS011;21301;43.626;10.580;2023-03-13T06:31:06;12.23;;;5.07;;
35128;SDS011;21301;43.626;10.580;2023-03-13T06:33:33;15.10;;;6.38;;
35128;SDS011;21301;43.626;10.580;2023-03-13T06:35:59;14.07;;;6.22;;
35128;SDS011;21301;43.626;10.580;2023-03-13T06:38:26;13.30;;;6.57;;
35128;SDS011;21301;43.626;10.580;2023-03-13T06:40:52;12.20;;;6.05;;
35128;SDS011;21301;43.626;10.580;2023-03-13T06:43:18;15.75;;;6.70;;
35128;SDS011;21301;43.626;10.580;2023-03-13T06:45:44;14.32;;;6.15;;
35128;SDS011;21301;43.626;10.580;2023-03-13T06:48:10;13.00;;;6.47;;
35128;SDS011;21301;43.626;10.580;2023-03-13T06:50:36;17.48;;;7.47;;
35128;SDS011;21301;43.626;10.580;2023-03-13T06:53:03;16.90;;;8.10;;
35128;SDS011;21301;43.626;10.580;2023-03-13T06:55:30;18.27;;;8.18;;
35128;SDS011;21301;43.626;10.580;2023-03-13T06:57:56;18.95;;;8.15;;
35128;SDS011;21301;43.626;10.580;2023-03-13T07:00:22;21.35;;;8.50;;
35128;SDS011;21301;43.626;10.580;2023-03-13T07:02:49;14.93;;;7.35;;
35128;SDS011;21301;43.626;10.580;2023-03-13T07:05:15;14.55;;;5.82;;
35128;SDS011;21301;43.626;10.580;2023-03-13T07:07:42;16.20;;;7.47;;
35128;SDS011;21301;43.626;10.580;2023-03-13T07:10:08;18.50;;;7.32;;
35128;SDS011;21301;43.626;10.580;2023-03-13T07:12:36;20.40;;;10.05;;
35128;SDS011;21301;43.626;10.580;2023-03-13T07:15:02;44.10;;;23.00;;
35128;SDS011;21301;43.626;10.580;2023-03-13T07:17:29;40.22;;;22.23;;
35128;SDS011;21301;43.626;10.580;2023-03-13T07:19:55;82.50;;;46.63;;
35128;SDS011;21301;43.626;10.580;2023-03-13T07:22:21;48.72;;;27.50;;
35128;SDS011;21301;43.626;10.580;2023-03-13T07:24:47;44.22;;;24.70;;
35128;SDS011;21301;43.626;10.580;2023-03-13T07:27:13;46.55;;;23.67;;
35128;SDS011;21301;43.626;10.580;2023-03-13T07:29:41;41.05;;;23.58;;
35128;SDS011;21301;43.626;10.580;2023-03-13T07:32:07;30.10;;;17.77;;
35128;SDS011;21301;43.626;10.580;2023-03-13T07:34:33;34.28;;;18.33;;
35128;SDS011;21301;43.626;10.580;2023-03-13T07:36:59;26.30;;;12.07;;
35128;SDS011;21301;43.626;10.580;2023-03-13T07:39:25;20.55;;;11.80;;
35128;SDS011;21301;43.626;10.580;2023-03-13T07:41:51;28.52;;;12.98;;
35128;SDS011;21301;43.626;10.580;2023-03-13T07:44:17;26.25;;;12.73;;
35128;SDS011;21301;43.626;10.580;2023-03-13T07:46:42;21.30;;;10.77;;
35128;SDS011;21301;43.626;10.580;2023-03-13T07:49:08;28.63;;;10.07;;
35128;SDS011;21301;43.626;10.580;2023-03-13T07:51:34;18.02;;;9.05;;
35128;SDS011;21301;43.626;10.580;2023-03-13T07:54:00;16.98;;;7.55;;
35128;SDS011;21301;43.626;10.580;2023-03-13T07:56:26;16.80;;;7.97;;
35128;SDS011;21301;43.626;10.580;2023-03-13T07:58:52;18.48;;;7.30;;
35128;SDS011;21301;43.626;10.580;2023-03-13T08:03:43;14.73;;;7.75;;
35128;SDS011;21301;43.626;10.580;2023-03-13T08:06:11;11.02;;;6.03;;
35128;SDS011;21301;43.626;10.580;2023-03-13T08:08:39;17.02;;;7.57;;
35128;SDS011;21301;43.626;10.580;2023-03-13T08:13:41;19.08;;;7.55;;
35128;SDS011;21301;43.626;10.580;2023-03-13T08:16:11;16.02;;;7.25;;
35128;SDS011;21301;43.626;10.580;2023-03-13T08:18:43;15.27;;;7.30;;
35128;SDS011;21301;43.626;10.580;2023-03-13T08:21:11;18.52;;;7.78;;
35128;SDS011;21301;43.626;10.580;2023-03-13T08:23:40;21.15;;;7.75;;
35128;SDS011;21301;43.626;10.580;2023-03-13T08:26:16;22.17;;;8.35;;
35128;SDS011;21301;43.626;10.580;2023-03-13T08:28:43;18.75;;;8.57;;
35128;SDS011;21301;43.626;10.580;2023-03-13T08:33:41;24.05;;;9.00;;
35128;SDS011;21301;43.626;10.580;2023-03-13T08:36:13;26.35;;;10.00;;
35128;SDS011;21301;43.626;10.580;2023-03-13T08:38:47;19.23;;;8.32;;
35128;SDS011;21301;43.626;10.580;2023-03-13T08:41:14;18.45;;;8.52;;
35128;SDS011;21301;43.626;10.580;2023-03-13T08:43:42;29.45;;;7.57;;
35128;SDS011;21301;43.626;10.580;2023-03-13T08:46:08;28.50;;;10.43;;
35128;SDS011;21301;43.626;10.580;2023-03-13T08:48:34;20.02;;;7.95;;
35128;SDS011;21301;43.626;10.580;2023-03-13T08:51:10;19.95;;;8.48;;
35128;SDS011;21301;43.626;10.580;2023-03-13T08:53:38;13.77;;;7.18;;
35128;SDS011;21301;43.626;10.580;2023-03-13T08:56:06;12.70;;;6.07;;
35128;SDS011;21301;43.626;10.580;2023-03-13T08:58:33;18.58;;;6.32;;
35128;SDS011;21301;43.626;10.580;2023-03-13T09:01:20;13.65;;;6.75;;
35128;SDS011;21301;43.626;10.580;2023-03-13T09:03:47;15.60;;;6.45;;
35128;SDS011;21301;43.626;10.580;2023-03-13T09:06:13;12.73;;;6.45;;
35128;SDS011;21301;43.626;10.580;2023-03-13T09:08:39;21.48;;;6.65;;
35128;SDS011;21301;43.626;10.580;2023-03-13T09:11:06;13.60;;;6.63;;
35128;SDS011;21301;43.626;10.580;2023-03-13T09:13:38;13.13;;;6.47;;
35128;SDS011;21301;43.626;10.580;2023-03-13T09:16:07;10.23;;;5.22;;
35128;SDS011;21301;43.626;10.580;2023-03-13T09:18:34;14.23;;;6.28;;
35128;SDS011;21301;43.626;10.580;2023-03-13T09:21:01;10.95;;;5.10;;
35128;SDS011;21301;43.626;10.580;2023-03-13T09:23:29;20.63;;;5.95;;
35128;SDS011;21301;43.626;10.580;2023-03-13T09:25:56;10.23;;;4.88;;
35128;SDS011;21301;43.626;10.580;2023-03-13T09:28:22;12.63;;;5.10;;
35128;SDS011;21301;43.626;10.580;2023-03-13T09:30:50;11.77;;;5.10;;
35128;SDS011;21301;43.626;10.580;2023-03-13T09:33:16;11.18;;;3.97;;
35128;SDS011;21301;43.626;10.580;2023-03-13T09:35:43;14.48;;;4.90;;
35128;SDS011;21301;43.626;10.580;2023-03-13T09:38:15;11.05;;;4.95;;
35128;SDS011;21301;43.626;10.580;2023-03-13T09:40:46;9.77;;;4.18;;
35128;SDS011;21301;43.626;10.580;2023-03-13T09:43:24;9.80;;;4.15;;
35128;SDS011;21301;43.626;10.580;2023-03-13T09:46:20;21.38;;;13.07;;
35128;SDS011;21301;43.626;10.580;2023-03-13T09:48:59;19.58;;;9.63;;
35128;SDS011;21301;43.626;10.580;2023-03-13T09:51:29;10.95;;;4.78;;
35128;SDS011;21301;43.626;10.580;2023-03-13T09:56:59;12.63;;;4.40;;
35128;SDS011;21301;43.626;10.580;2023-03-13T10:05:20;9.60;;;4.38;;
35128;SDS011;21301;43.626;10.580;2023-03-13T10:08:14;14.30;;;3.97;;
35128;SDS011;21301;43.626;10.580;2023-03-13T10:13:30;11.57;;;4.20;;
35128;SDS011;21301;43.626;10.580;2023-03-13T10:16:05;9.82;;;3.53;;
35128;SDS011;21301;43.626;10.580;2023-03-13T10:18:35;13.50;;;4.80;;
35128;SDS011;21301;43.626;10.580;2023-03-13T10:21:19;11.80;;;4.22;;
35128;SDS011;21301;43.626;10.580;2023-03-13T10:26:22;12.57;;;3.85;;
35128;SDS011;21301;43.626;10.580;2023-03-13T10:28:54;11.43;;;4.57;;
35128;SDS011;21301;43.626;10.580;2023-03-13T10:31:31;13.20;;;4.40;;
35128;SDS011;21301;43.626;10.580;2023-03-13T10:34:07;7.97;;;3.20;;
35128;SDS011;21301;43.626;10.580;2023-03-13T10:36:39;10.35;;;3.60;;
35128;SDS011;21301;43.626;10.580;2023-03-13T10:39:16;7.18;;;3.58;;
35128;SDS011;21301;43.626;10.580;2023-03-13T10:41:47;11.13;;;3.63;;
35128;SDS011;21301;43.626;10.580;2023-03-13T10:44:15;11.90;;;3.97;;
35128;SDS011;21301;43.626;10.580;2023-03-13T10:46:47;9.82;;;3.63;;
35128;SDS011;21301;43.626;10.580;2023-03-13T10:49:18;12.23;;;4.47;;
35128;SDS011;21301;43.626;10.580;2023-03-13T10:51:50;7.78;;;3.85;;
35128;SDS011;21301;43.626;10.580;2023-03-13T10:59:55;8.90;;;4.10;;
35128;SDS011;21301;43.626;10.580;2023-03-13T11:02:34;7.15;;;3.35;;
35128;SDS011;21301;43.626;10.580;2023-03-13T11:05:28;8.13;;;3.03;;
35128;SDS011;21301;43.626;10.580;2023-03-13T11:07:52;9.70;;;3.50;;
35128;SDS011;21301;43.626;10.580;2023-03-13T11:10:26;10.15;;;4.22;;
35128;SDS011;21301;43.626;10.580;2023-03-13T11:12:55;11.52;;;4.03;;
35128;SDS011;21301;43.626;10.580;2023-03-13T11:15:24;11.38;;;3.88;;
35128;SDS011;21301;43.626;10.580;2023-03-13T11:18:12;12.02;;;4.38;;
35128;SDS011;21301;43.626;10.580;2023-03-13T11:20:48;9.27;;;3.88;;
35128;SDS011;21301;43.626;10.580;2023-03-13T11:23:18;13.55;;;3.97;;
35128;SDS011;21301;43.626;10.580;2023-03-13T11:37:19;11.63;;;4.20;;
35128;SDS011;21301;43.626;10.580;2023-03-13T11:39:49;8.15;;;3.45;;
35128;SDS011;21301;43.626;10.580;2023-03-13T11:42:33;10.52;;;3.30;;
35128;SDS011;21301;43.626;10.580;2023-03-13T11:48:15;13.05;;;4.38;;
35128;SDS011;21301;43.626;10.580;2023-03-13T12:05:09;20.15;;;3.70;;
35128;SDS011;21301;43.626;10.580;2023-03-13T12:10:34;12.48;;;3.60;;
35128;SDS011;21301;43.626;10.580;2023-03-13T12:15:42;11.98;;;3.88;;
35128;SDS011;21301;43.626;10.580;2023-03-13T12:18:14;16.58;;;4.13;;
35128;SDS011;21301;43.626;10.580;2023-03-13T12:20:47;31.67;;;5.75;;
35128;SDS011;21301;43.626;10.580;2023-03-13T12:26:15;13.88;;;4.35;;
35128;SDS011;21301;43.626;10.580;2023-03-13T12:28:47;15.68;;;3.95;;
35128;SDS011;21301;43.626;10.580;2023-03-13T12:39:49;13.48;;;3.28;;
35128;SDS011;21301;43.626;10.580;2023-03-13T12:44:57;14.13;;;2.85;;
35128;SDS011;21301;43.626;10.580;2023-03-13T12:49:55;9.23;;;2.63;;
35128;SDS011;21301;43.626;10.580;2023-03-13T13:01:04;11.77;;;2.47;;
35128;SDS011;21301;43.626;10.580;2023-03-13T13:03:33;9.35;;;1.85;;
35128;SDS011;21301;43.626;10.580;2023-03-13T13:06:14;12.23;;;2.58;;
35128;SDS011;21301;43.626;10.580;2023-03-13T13:14:00;9.38;;;2.17;;
35128;SDS011;21301;43.626;10.580;2023-03-13T13:16:27;14.30;;;3.45;;
35128;SDS011;21301;43.626;10.580;2023-03-13T13:18:53;8.63;;;1.98;;
35128;SDS011;21301;43.626;10.580;2023-03-13T13:21:23;15.45;;;2.08;;
35128;SDS011;21301;43.626;10.580;2023-03-13T13:23:50;8.98;;;1.70;;
35128;SDS011;21301;43.626;10.580;2023-03-13T13:28:55;12.90;;;1.60;;
35128;SDS011;21301;43.626;10.580;2023-03-13T13:37:22;4.57;;;1.13;;
35128;SDS011;21301;43.626;10.580;2023-03-13T13:39:47;5.10;;;1.70;;
35128;SDS011;21301;43.626;10.580;2023-03-13T13:47:29;3.13;;;0.95;;
35128;SDS011;21301;43.626;10.580;2023-03-13T13:49:57;6.38;;;2.10;;
35128;SDS011;21301;43.626;10.580;2023-03-13T13:52:41;6.70;;;1.85;;
35128;SDS011;21301;43.626;10.580;2023-03-13T13:58:04;8.48;;;1.73;;
35128;SDS011;21301;43.626;10.580;2023-03-13T14:00:38;15.65;;;2.00;;
35128;SDS011;21301;43.626;10.580;2023-03-13T14:03:16;13.45;;;1.95;;
35128;SDS011;21301;43.626;10.580;2023-03-13T14:05:51;5.78;;;1.75;;
35128;SDS011;21301;43.626;10.580;2023-03-13T14:08:29;11.00;;;2.53;;
35128;SDS011;21301;43.626;10.580;2023-03-13T14:13:39;6.82;;;1.20;;
35128;SDS011;21301;43.626;10.580;2023-03-13T14:16:13;8.70;;;1.90;;
35128;SDS011;21301;43.626;10.580;2023-03-13T14:18:46;14.25;;;2.45;;
35128;SDS011;21301;43.626;10.580;2023-03-13T14:21:12;9.27;;;1.75;;
35128;SDS011;21301;43.626;10.580;2023-03-13T14:23:39;9.50;;;1.13;;
35128;SDS011;21301;43.626;10.580;2023-03-13T14:26:20;5.28;;;1.52;;
35128;SDS011;21301;43.626;10.580;2023-03-13T14:28:52;9.18;;;1.50;;
35128;SDS011;21301;43.626;10.580;2023-03-13T14:33:58;7.20;;;2.38;;
35128;SDS011;21301;43.626;10.580;2023-03-13T14:36:25;15.20;;;2.58;;
35128;SDS011;21301;43.626;10.580;2023-03-13T14:38:55;11.00;;;1.77;;
35128;SDS011;21301;43.626;10.580;2023-03-13T14:41:28;6.78;;;1.85;;
35128;SDS011;21301;43.626;10.580;2023-03-13T14:44:09;4.35;;;1.70;;
35128;SDS011;21301;43.626;10.580;2023-03-13T14:46:48;7.13;;;1.45;;
35128;SDS011;21301;43.626;10.580;2023-03-13T14:49:21;5.38;;;1.52;;
35128;SDS011;21301;43.626;10.580;2023-03-13T14:54:28;9.07;;;2.03;;
35128;SDS011;21301;43.626;10.580;2023-03-13T14:57:14;6.90;;;1.63;;
35128;SDS011;21301;43.626;10.580;2023-03-13T14:59:45;7.47;;;2.30;;
35128;SDS011;21301;43.626;10.580;2023-03-13T15:04:52;9.93;;;2.00;;
35128;SDS011;21301;43.626;10.580;2023-03-13T15:07:18;6.13;;;2.30;;
35128;SDS011;21301;43.626;10.580;2023-03-13T15:09:45;7.22;;;2.25;;
35128;SDS011;21301;43.626;10.580;2023-03-13T15:12:13;10.50;;;2.03;;
35128;SDS011;21301;43.626;10.580;2023-03-13T15:14:42;9.35;;;1.60;;
35128;SDS011;21301;43.626;10.580;2023-03-13T15:17:14;7.68;;;1.67;;
35128;SDS011;21301;43.626;10.580;2023-03-13T15:19:46;6.38;;;1.85;;
35128;SDS011;21301;43.626;10.580;2023-03-13T15:22:24;11.23;;;1.65;;
35128;SDS011;21301;43.626;10.580;2023-03-13T15:24:56;12.95;;;2.08;;
35128;SDS011;21301;43.626;10.580;2023-03-13T15:27:23;14.30;;;1.95;;
35128;SDS011;21301;43.626;10.580;2023-03-13T15:29:50;7.72;;;1.25;;
35128;SDS011;21301;43.626;10.580;2023-03-13T15:32:22;5.38;;;1.90;;
35128;SDS011;21301;43.626;10.580;2023-03-13T15:34:50;4.20;;;1.42;;
35128;SDS011;21301;43.626;10.580;2023-03-13T15:37:16;5.82;;;1.10;;
35128;SDS011;21301;43.626;10.580;2023-03-13T15:39:42;10.00;;;1.10;;
35128;SDS011;21301;43.626;10.580;2023-03-13T15:42:08;7.88;;;1.88;;
35128;SDS011;21301;43.626;10.580;2023-03-13T15:44:34;7.35;;;1.77;;
35128;SDS011;21301;43.626;10.580;2023-03-13T15:47:00;7.97;;;1.50;;
35128;SDS011;21301;43.626;10.580;2023-03-13T15:49:25;8.15;;;1.67;;
35128;SDS011;21301;43.626;10.580;2023-03-13T15:51:51;11.77;;;3.67;;
35128;SDS011;21301;43.626;10.580;2023-03-13T15:54:17;29.35;;;5.22;;
35128;SDS011;21301;43.626;10.580;2023-03-13T15:56:43;20.33;;;3.42;;
35128;SDS011;21301;43.626;10.580;2023-03-13T15:59:12;8.88;;;2.00;;
35128;SDS011;21301;43.626;10.580;2023-03-13T16:01:40;11.27;;;1.73;;
35128;SDS011;21301;43.626;10.580;2023-03-13T16:04:06;12.13;;;2.40;;
35128;SDS011;21301;43.626;10.580;2023-03-13T16:06:33;6.53;;;1.20;;
35128;SDS011;21301;43.626;10.580;2023-03-13T16:09:00;9.48;;;2.00;;
35128;SDS011;21301;43.626;10.580;2023-03-13T16:11:27;8.82;;;2.72;;
35128;SDS011;21301;43.626;10.580;2023-03-13T16:13:53;7.70;;;2.25;;
35128;SDS011;21301;43.626;10.580;2023-03-13T16:18:48;5.38;;;1.73;;
35128;SDS011;21301;43.626;10.580;2023-03-13T16:21:22;17.42;;;2.70;;
35128;SDS011;21301;43.626;10.580;2023-03-13T16:23:53;8.95;;;2.85;;
35128;SDS011;21301;43.626;10.580;2023-03-13T16:26:23;9.85;;;2.13;;
35128;SDS011;21301;43.626;10.580;2023-03-13T16:28:52;15.15;;;2.85;;
35128;SDS011;21301;43.626;10.580;2023-03-13T16:31:28;7.32;;;1.92;;
35128;SDS011;21301;43.626;10.580;2023-03-13T16:33:56;8.52;;;1.67;;
35128;SDS011;21301;43.626;10.580;2023-03-13T16:36:24;11.23;;;2.47;;
35128;SDS011;21301;43.626;10.580;2023-03-13T16:38:55;4.18;;;1.40;;
35128;SDS011;21301;43.626;10.580;2023-03-13T16:41:23;9.38;;;2.33;;
35128;SDS011;21301;43.626;10.580;2023-03-13T16:43:52;10.48;;;2.28;;
35128;SDS011;21301;43.626;10.580;2023-03-13T16:46:19;15.32;;;3.45;;
35128;SDS011;21301;43.626;10.580;2023-03-13T16:48:56;6.05;;;1.92;;
35128;SDS011;21301;43.626;10.580;2023-03-13T16:51:23;10.85;;;2.10;;
35128;SDS011;21301;43.626;10.580;2023-03-13T16:53:51;12.82;;;2.80;;
35128;SDS011;21301;43.626;10.580;2023-03-13T16:59:12;18.98;;;8.63;;
35128;SDS011;21301;43.626;10.580;2023-03-13T17:01:39;10.27;;;3.85;;
35128;SDS011;21301;43.626;10.580;2023-03-13T17:04:05;14.52;;;5.22;;